Timeline UpdatesTrip UpdatesNews PostsPvt PostsTravel TipsAdmin PostsConv PostsFollowed PostsChat RequestsBlog PostsPNR Posts

Disclaimer
Search
 
 
Wed Jul 23, 2014 19:27:02 ISTHomeTrainsΣChainsAtlasPNRForumGalleryNewsFAQTripsMembersLoginFeedback
No Recent News for this Train
Other Trains in the News **new
Latest...
.
Mon Nov 18, 2013 (08:49PM)
⇐ Return Journey: Train# 14650

14649/Saryu Yamuna Express

Nov 18 2013 (8:48PM)
Change Departure Station:
Change Arrival Station:
Post a Train Travel TipPost a Train Travel Tip **new
Post a Comment/Question/Picture/VideoPost a Comment/Question/Picture/Video
Pantry/Catering
✕ NO Pantry Car
✕ NO Catering
Loco/Rake Reversals
SPJ/Samastipur Junction (9); SHG/Shahganj Junction (4);
RSA - Rake Sharing
14673/74 Shaheed Express.
Rake/Coach Composition
LOCO,SLR,UR,UR,S1,S2,S3,S4,B1,AB1,S5,S6,S7,UR,UR,UR,UR,UR,UR,UR,UR,SLR
Loco
JYG-DLI=>TKD WDM 3A DLI-ASR=>GZB WAP 5/7
News    PNR    Forum    Time-Table    Availability    Fare Chart    Map    Arr/Dep History    Trips    Gallery    ΣChains    X/O    Timeline    
Travel Time: 40h 55m    60 halts    Distance: 1671 km    Avg Speed: 40 km/hr
Type: Mail/Express
Zone: NR/Northern
Departs @ 06:30
Platform# ???
S T  F 
Jaynagar/JYG 
Arrives @ 23:25 +1 night
Platform# 4
 M W  S
Amritsar Junction/ASR 

60 halts. 273 intermediate Stations between Jaynagar and Amritsar Junction

Show ALL intermediate Stations  Show Old Time-Table

#CodeStation NameX/OArrivesAvgDepartsAvgHaltPFDay#KmSpeedElevZoneAddress
1JYG»Jaynagar (3)»  -06:30---10.05268mECRDistt: Madhubani, Bihar
2KJIKhajauli  06:44-06:45-1m--112.05170mECRMadhubani, Bihar
3RJARajanagar  06:56-06:57-1m--121.33565mECRRajnagar Distt: Madhubani, Bihar
4MBIMadhubani (3)  07:14-07:15-1m--131.26062mECRMadhubani, Bihar
5PDWPandaulX  07:24-07:25-1m--140.22159mECRMadhubani, Bihar
6SKISakri Junction (5)X  07:47-07:52-5m--148.15055mECRMadhubani, Bihar
7TRSTarsarai  08:00-08:01-1m--154.74454mECRDarbhanga, Bihar
8KKHTKakarghatti  08:10-08:11-1m--161.31154mECRDarbhanga, Bihar
9DBGDarbhanga Junction (5)X  08:45-09:13-28m2167.74354mECRDarbhanga, Bihar
10LSILaheria Sarai (1)X  09:20-09:25-5m1172.75752mECRDarbhanga, Bihar
11HYTHaiaghat  09:36-09:37-1m--183.11951mECRDarbhanga, Bihar
12SPJSamastipur Junction (9)10:45-11:05-20m--1105.16355mECRSamastipur, Bihar
13MFPMuzaffarpur Junction (6)  11:55-12:05-10m31157.26057mECRMuzaffarpur, Bihar
14HJPHajipur Junction (3)X  12:59-13:00-1m11211.13355mECR06224-272230, Bihar
15SEESonpur Junction (4)X  13:10-13:20-10m--1216.65056mECRSaran, Bihar
16CPRChhapra Junction (6)X  14:25-14:40-15m--1270.66558mNERDistt: Saran, Bihar
17SIPSuraimanpur  15:07-15:08-1m--1299.75460mNERBallia, Uttar Pradesh
18STWSahatwarX  15:29-15:30-1m--1318.85263mNERBallia district, Uttar Pradesh
19BUIBallia (3)  15:50-15:55-5m--1336.25462mNERBallia, Uttar Pradesh
20RSRRasra (2)  16:31-16:32-1m--1368.85170mNERRasra, Uttar Pradesh
21IAAIndara Junction (3)X  17:05-17:07-2m--1397.23674mNERMau, Uttar Pradesh
22MAUMau Junction (4)  17:20-17:35-15m41405.05975mNERMau., Uttar Pradesh
23MMAMuhammadabad (2)X  17:57-17:58-1m11426.72980mNERMuhammadabad Marg, Uttar Pradesh
24SAASathiaon (1)  18:17-18:18-1m11435.84481mNERState Highway 34, Uttar Pradesh
25AMHAzamgarh (2)  18:35-18:40-5m11448.36281mNERAzamgarh, Uttar Pradesh
26SMZSarai Mir (2)  19:05-19:06-1m11474.24487mNERTowa Ahirana, Uttar Pradesh
27KRNDKhorason Road (2)  19:18-19:19-1m11483.02885mNERUttar Pradesh 276304 ?, Uttar Pradesh
28SHGShahganj Junction (4)20:05-20:30-25m--1504.27490mNRShahganj, Uttar Pradesh
29ABPAkbarpur (2)  21:06-21:08-2m11548.37492mNRAkbarpur, Uttar Pradesh
30AYAyodhya Junction (3)  21:52-21:53-1m11602.21898mNRAyodhya, Uttar Pradesh
31FDFaizabad Junction (5)X  22:15-22:20-5m11608.971104mNRFaizabad, Uttar Pradesh
32RDLRudauli (2)  22:52-22:53-1m--1647.048112mNRRudauli, Uttar Pradesh
33BBKBarabanki Junction (4)X  00:10-00:11-1m--2708.232122mNRPin-225001, Uttar Pradesh
34LKOLucknow Charbagh (9)X  01:05-01:15-10m22736.767123mNR226004, Uttar Pradesh
35SPNShahjahanpur Junction (3)X  03:43-03:48-5m--2901.641156mNRShahjahanpur, Uttar Pradesh
36BEBareilly Junction (4)  05:30-05:35-5m--2972.168174mNRBareilly, Uttar Pradesh
37RMURampur Junction (3)X  06:31-06:32-1m--21035.134190mNRRampur, Uttar Pradesh
38MBMoradabad Junction (7)X  07:20-07:30-10m521062.461201mNRMoradabad, Uttar Pradesh
39AMROAmroha (3)X  08:00-08:01-1m221092.936217mNRAmroha, Uttar Pradesh
40HPUHapur Junction (4)X  10:05-10:10-5m--21166.439214mNRHapur Jn., Uttar Pradesh
41GZBGhaziabad Junction (6)  11:07-11:09-2m321203.126217mNRGhaziabad, Uttar Pradesh
42DLIOld Delhi Junction (16)11:55-12:45-50m321223.213219mNRNear Chandni Chowk Metro Station, Delhi NCT
43SZMDelhi Sabzi Mandi (2)  12:59-13:00-1m--21226.269220mNRGulabi Bagh, Delhi NCT
44SNPSonipat (3)  13:35-13:36-1m--21266.562225mNRSonipat, Haryana
45PNPPanipat Junction (5)X  14:20-14:25-5m321311.771235mNRPanipat, Haryana
46KUNKarnal (3)X  14:54-14:55-1m--21346.164253mNRKarnal, Haryana
47KKDEKurukshetra Junction (3)  15:26-15:28-2m121379.249260mNRKurukshetra, Haryana
48UMBAmbala Cantt. Junction (7)X  16:20-16:30-10m721421.335278mNRAmbala 133001, Haryana
49UBCAmbala City (3)  16:43-16:44-1m321428.877273mNRNH-1, Haryana
50RPJRajpura Junction (3)XO  17:00-17:01-1m121449.334272mNRNH-1, Punjab
51SIRSirhind Junction (3)  17:45-17:47-2m121474.259271mNRSirhind, Punjab
52GVGMandi Gobindgarh (2)X  17:57-17:58-1m221483.954268mNRMandi Gobindgarh, Punjab
53KNNKhanna (3)  18:07-18:08-1m121492.144269mNRNH 1, Punjab
54DOADoraha (2)X  18:36-18:37-1m121512.425261mNRDoraha, Punjab
55LDHLudhiana Junction (7)X  19:30-19:40-10m221534.933246mNRLudhiana 141001, Punjab
56PHRPhillaur Junction (3)X  20:04-20:05-1m221548.068246mNRPhillaur, Punjab
57PGWPhagwara Junction (3)X  20:25-20:26-1m221570.670245mNRPhagwara, Punjab
58JRCJalandhar Cantt. Junction (3)X  20:40-20:42-2m121586.897239mNRNear Rama Mandi, Punjab
59JUCJalandhar City Junction (5)X  20:45-20:55-10m121591.737239mNRJalandhar 144001, Punjab
60KREKartarpur (2)  21:19-21:20-1m221606.354236mNRKartarpur, Punjab
61BEASBeas Junction (2)X  21:44-21:45-1m121627.826238mNRBeas, Punjab
62ASR•Amritsar Junction (5)•  23:25--421670.8-233mNRAmritsar 143002, Punjab
Scroll to Top
Scroll to Bottom